Time;durP1;ratioP1;P1;durP2;ratioP2;P2;SDS_P1;SDS_P2;PMS_P1;PMS_P2;Temp;Humidity;BMP_temperature;BMP_pressure;BME280_temperature;BME280_humidity;BME280_pressure;Samples;Min_cycle;Max_cycle;Signal;HPM_P1;HPM_P2
2023/12/29 00:01:31;;;;;;;10.77;5.22;;;;;;;8.64;100.00;99956.41;6120155;23;20418;-84
2023/12/29 00:03:58;;;;;;;11.88;4.78;;;;;;;8.65;100.00;99965.16;6096114;23;20040;-84
2023/12/29 00:06:25;;;;;;;8.50;4.63;;;;;;;8.65;100.00;99966.03;6094720;23;20052;-84
2023/12/29 00:08:52;;;;;;;9.98;4.30;;;;;;;8.67;100.00;99964.09;6095299;23;20025;-84
2023/12/29 00:11:19;;;;;;;11.63;4.47;;;;;;;8.67;100.00;99963.25;6095807;23;20076;-84
2023/12/29 00:13:47;;;;;;;11.32;5.28;;;;;;;8.67;100.00;99948.19;6070800;23;20025;-84
2023/12/29 00:16:16;;;;;;;14.07;5.78;;;;;;;8.68;100.00;99949.06;6071049;23;20798;-84
2023/12/29 00:18:43;;;;;;;10.25;5.13;;;;;;;8.72;100.00;99941.72;6119799;23;20033;-85
2023/12/29 00:21:11;;;;;;;9.95;4.97;;;;;;;8.74;100.00;99942.44;6072207;23;20032;-84
2023/12/29 00:23:37;;;;;;;9.45;5.45;;;;;;;8.73;100.00;99943.38;6094796;23;20024;-84
2023/12/29 00:26:04;;;;;;;15.35;6.50;;;;;;;8.74;100.00;99945.09;6119101;23;20025;-84
2023/12/29 00:28:31;;;;;;;20.38;7.05;;;;;;;8.76;100.00;99944.00;6095706;23;20437;-84
2023/12/29 00:30:58;;;;;;;12.57;6.72;;;;;;;8.78;100.00;99946.53;6118699;23;20017;-84
2023/12/29 00:33:31;;;;;;;14.82;6.47;;;;;;;8.82;100.00;99953.25;6096670;23;20026;-84
2023/12/29 00:35:58;;;;;;;16.38;6.65;;;;;;;8.81;100.00;99947.13;6094932;23;20021;-84
2023/12/29 00:38:29;;;;;;;18.17;7.63;;;;;;;8.78;100.00;99939.44;6072199;23;20045;-84
2023/12/29 00:40:56;;;;;;;10.70;6.15;;;;;;;8.81;100.00;99941.84;6095055;23;20079;-84
2023/12/29 00:43:23;;;;;;;17.90;7.35;;;;;;;8.82;100.00;99945.31;6120038;23;20024;-83
2023/12/29 00:45:50;;;;;;;18.50;8.25;;;;;;;8.82;100.00;99937.38;6118780;23;20031;-84
2023/12/29 00:48:17;;;;;;;13.98;7.13;;;;;;;8.83;100.00;99942.56;6071692;23;20400;-87
2023/12/29 00:50:45;;;;;;;14.55;6.93;;;;;;;8.84;100.00;99936.28;6118998;23;20295;-84
2023/12/29 00:53:12;;;;;;;12.73;6.35;;;;;;;8.83;100.00;99924.03;6070658;23;20071;-84
2023/12/29 00:55:39;;;;;;;16.55;8.07;;;;;;;8.84;100.00;99927.50;6094975;23;20033;-84
2023/12/29 00:58:06;;;;;;;16.00;7.38;;;;;;;8.85;100.00;99927.41;6094790;23;20164;-84
2023/12/29 01:00:32;;;;;;;10.98;6.45;;;;;;;8.85;100.00;99932.69;6094298;23;20125;-84
2023/12/29 01:03:00;;;;;;;15.35;7.32;;;;;;;8.86;100.00;99931.72;6119957;23;20107;-84
2023/12/29 01:05:27;;;;;;;17.00;8.15;;;;;;;8.87;100.00;99930.75;6095314;23;20021;-84
2023/12/29 01:07:55;;;;;;;20.65;7.55;;;;;;;8.87;100.00;99928.09;6118742;23;20021;-84
2023/12/29 01:10:22;;;;;;;18.17;8.00;;;;;;;8.89;100.00;99926.16;6070896;23;20457;-84
2023/12/29 01:12:49;;;;;;;21.90;8.57;;;;;;;8.89;100.00;99923.53;6071398;23;20024;-84
2023/12/29 01:15:15;;;;;;;14.82;8.02;;;;;;;8.88;100.00;99924.50;6094504;23;20158;-84
2023/12/29 01:17:42;;;;;;;17.95;8.18;;;;;;;8.87;100.00;99936.03;6071213;23;20021;-84
2023/12/29 01:20:10;;;;;;;16.10;8.20;;;;;;;8.90;100.00;99942.91;6118948;23;20053;-84
2023/12/29 01:22:36;;;;;;;16.77;8.02;;;;;;;8.90;100.00;99943.75;6094634;23;20028;-84
2023/12/29 01:25:03;;;;;;;14.43;7.35;;;;;;;8.91;100.00;99942.78;6070425;23;20024;-84
2023/12/29 01:27:30;;;;;;;15.80;7.18;;;;;;;8.91;100.00;99937.50;6118883;23;20345;-84
2023/12/29 01:29:57;;;;;;;17.55;7.97;;;;;;;8.90;100.00;99942.91;6118697;23;20120;-84
2023/12/29 01:32:24;;;;;;;16.30;7.30;;;;;;;8.91;100.00;99941.94;6095014;23;20013;-84
2023/12/29 01:34:52;;;;;;;16.95;8.02;;;;;;;8.93;100.00;99944.47;6094506;23;20030;-84
2023/12/29 01:37:19;;;;;;;20.02;8.60;;;;;;;8.91;100.00;99947.25;6094670;23;20108;-84
2023/12/29 01:39:46;;;;;;;20.10;8.10;;;;;;;8.92;100.00;99940.97;6094635;23;20029;-84
2023/12/29 01:42:13;;;;;;;16.52;7.43;;;;;;;8.94;100.00;99944.34;6118468;23;20026;-84
2023/12/29 01:44:40;;;;;;;16.60;7.07;;;;;;;8.92;100.00;99933.03;6118666;23;20100;-84
2023/12/29 01:47:14;;;;;;;18.08;7.50;;;;;;;8.93;100.00;99937.38;6119097;23;20051;-84
2023/12/29 01:49:41;;;;;;;16.63;7.65;;;;;;;8.95;100.00;99929.28;6142708;23;20032;-84
2023/12/29 01:52:08;;;;;;;17.35;8.43;;;;;;;8.94;100.00;99915.22;6118590;23;20032;-84
2023/12/29 01:54:37;;;;;;;16.20;8.23;;;;;;;8.94;100.00;99923.16;6118108;23;20060;-84
2023/12/29 01:57:08;;;;;;;15.57;7.60;;;;;;;8.93;100.00;99918.84;6095400;23;20021;-84
2023/12/29 01:59:37;;;;;;;18.25;7.28;;;;;;;8.94;100.00;99925.81;6118606;23;20052;-84
2023/12/29 02:02:04;;;;;;;14.60;7.13;;;;;;;8.94;100.00;99922.31;6093722;23;20100;-84
2023/12/29 02:04:31;;;;;;;18.08;8.23;;;;;;;8.91;100.00;99911.00;6119803;23;20437;-84
2023/12/29 02:06:59;;;;;;;16.73;8.95;;;;;;;8.95;100.00;99911.59;6095040;23;20026;-84
2023/12/29 02:09:26;;;;;;;21.52;8.05;;;;;;;8.91;100.00;99905.72;6121170;23;20341;-84
2023/12/29 02:11:54;;;;;;;18.92;8.52;;;;;;;8.93;100.00;99910.03;6096287;23;20108;-85
2023/12/29 02:14:22;;;;;;;15.95;7.65;;;;;;;8.94;100.00;99904.63;6073313;23;20018;-84
2023/12/29 02:17:15;;;;;;;16.98;7.75;;;;;;;8.90;100.00;99893.44;6071842;23;20084;-84
2023/12/29 02:19:46;;;;;;;;;;;;;;;8.84;100.00;99899.22;6096491;23;20059;-84
2023/12/29 02:22:13;;;;;;;15.38;7.90;;;;;;;8.91;100.00;99899.56;6121320;23;19923;-84
2023/12/29 02:24:50;;;;;;;16.55;7.70;;;;;;;8.88;100.00;99887.44;6095444;23;20025;-85
2023/12/29 02:27:32;;;;;;;23.63;8.43;;;;;;;8.87;100.00;99896.31;6120028;23;20449;-83
2023/12/29 02:30:09;;;;;;;20.00;7.82;;;;;;;8.87;100.00;99875.13;6144216;23;20045;-84
2023/12/29 02:32:40;;;;;;;18.27;7.72;;;;;;;8.89;100.00;99881.16;6096442;23;20033;-84
2023/12/29 02:35:10;;;;;;;15.25;7.55;;;;;;;8.89;100.00;99886.44;6121227;23;20062;-83
2023/12/29 02:37:39;;;;;;;16.45;7.72;;;;;;;8.90;100.00;99884.63;6119961;23;20091;-87
2023/12/29 02:40:07;;;;;;;18.88;8.18;;;;;;;8.89;100.00;99875.84;6095828;23;20468;-84
2023/12/29 02:42:34;;;;;;;24.42;8.55;;;;;;;8.89;100.00;99877.66;6120514;23;20029;-85
2023/12/29 02:45:02;;;;;;;19.00;8.05;;;;;;;8.88;100.00;99873.34;6095039;23;20021;-85
2023/12/29 02:47:30;;;;;;;21.20;8.98;;;;;;;8.86;100.00;99872.63;6067093;23;20342;-85
2023/12/29 02:49:57;;;;;;;16.95;9.57;;;;;;;8.86;100.00;99881.41;6066547;23;20109;-84
2023/12/29 02:52:24;;;;;;;18.30;8.02;;;;;;;8.86;100.00;99889.34;6095902;23;20021;-84
2023/12/29 02:54:51;;;;;;;22.42;9.05;;;;;;;8.86;100.00;99875.28;6119723;23;20030;-86
2023/12/29 02:57:18;;;;;;;22.25;8.82;;;;;;;8.86;100.00;99872.63;6072021;23;20041;-85
2023/12/29 02:59:45;;;;;;;18.23;8.43;;;;;;;8.84;100.00;99875.38;6095262;23;20025;-85
2023/12/29 03:02:11;;;;;;;17.67;8.77;;;;;;;8.83;100.00;99865.78;6072714;23;20025;-84
2023/12/29 03:04:38;;;;;;;20.65;8.73;;;;;;;8.83;100.00;99865.78;6119406;23;20096;-84
2023/12/29 03:07:05;;;;;;;25.05;9.38;;;;;;;8.83;100.00;99875.53;6119909;23;20413;-85
2023/12/29 03:09:32;;;;;;;19.25;8.82;;;;;;;8.83;100.00;99868.41;6120455;23;20092;-84
2023/12/29 03:11:59;;;;;;;24.15;11.18;;;;;;;8.82;100.00;99865.88;6094988;23;20460;-84
2023/12/29 03:14:26;;;;;;;18.23;9.38;;;;;;;8.80;100.00;99873.97;6095791;23;20021;-84
2023/12/29 03:16:53;;;;;;;19.63;8.13;;;;;;;8.80;100.00;99873.97;6071821;23;20017;-84
2023/12/29 03:19:20;;;;;;;18.23;7.90;;;;;;;8.81;100.00;99874.81;6094673;23;20055;-84
2023/12/29 03:21:47;;;;;;;23.05;8.90;;;;;;;8.80;100.00;99873.97;6119315;23;20096;-85
2023/12/29 03:24:13;;;;;;;18.92;9.52;;;;;;;8.79;100.00;99872.28;6096059;23;20057;-84
2023/12/29 03:26:40;;;;;;;19.48;8.50;;;;;;;8.80;100.00;99866.03;6094862;23;20033;-84
2023/12/29 03:29:07;;;;;;;20.25;8.30;;;;;;;8.81;100.00;99872.16;6095834;23;20422;-84
2023/12/29 03:31:34;;;;;;;15.50;7.57;;;;;;;8.78;100.00;99867.94;6119001;23;20025;-84
2023/12/29 03:34:01;;;;;;;18.48;7.65;;;;;;;8.80;100.00;99865.16;6094793;23;20037;-84
2023/12/29 03:36:28;;;;;;;15.50;7.60;;;;;;;8.81;100.00;99880.94;6067512;23;20017;-84
2023/12/29 03:38:56;;;;;;;18.42;8.10;;;;;;;8.82;100.00;99873.81;6119630;23;20084;-83
2023/12/29 03:41:23;;;;;;;20.55;8.98;;;;;;;8.81;100.00;99873.00;6119932;23;20051;-84
2023/12/29 03:43:50;;;;;;;17.13;8.00;;;;;;;8.80;100.00;99875.75;6095275;23;20027;-86
2023/12/29 03:46:21;;;;;;;19.95;8.20;;;;;;;8.79;100.00;99874.91;6095461;23;20041;-84
2023/12/29 03:48:48;;;;;;;16.35;7.30;;;;;;;8.80;100.00;99871.31;6119564;23;20022;-84
2023/12/29 03:51:16;;;;;;;15.70;7.25;;;;;;;8.80;100.00;99873.97;6095155;23;20049;-84
2023/12/29 03:53:43;;;;;;;15.00;7.13;;;;;;;8.81;100.00;99880.94;6095941;23;20363;-84
2023/12/29 03:56:16;;;;;;;19.80;8.93;;;;;;;8.82;100.00;99872.00;6119566;23;20029;-84
2023/12/29 03:58:43;;;;;;;17.00;7.32;;;;;;;8.80;100.00;99878.41;6119431;23;21175;-86
2023/12/29 04:01:11;;;;;;;14.10;7.00;;;;;;;8.83;100.00;99867.59;6144269;23;20117;-85
2023/12/29 04:03:39;;;;;;;16.30;7.30;;;;;;;8.82;100.00;99869.38;6119853;23;20018;-85
2023/12/29 04:06:46;;;;;;;17.95;6.97;;;;;;;8.80;100.00;99870.47;6118019;23;20036;-85
2023/12/29 04:09:13;;;;;;;21.95;7.63;;;;;;;8.83;100.00;99879.00;6061928;23;20097;-85
2023/12/29 04:11:40;;;;;;;19.30;7.55;;;;;;;8.83;100.00;99870.22;6113252;23;20036;-85
2023/12/29 04:14:08;;;;;;;17.00;7.72;;;;;;;8.84;100.00;99883.34;6089702;23;20089;-85
2023/12/29 04:16:37;;;;;;;12.57;6.97;;;;;;;8.85;100.00;99877.09;6114931;23;20462;-84
2023/12/29 04:19:04;;;;;;;19.90;7.10;;;;;;;8.86;100.00;99888.50;6070618;23;20028;-85
2023/12/29 04:21:31;;;;;;;14.55;7.00;;;;;;;8.85;100.00;99876.22;6094552;23;20017;-85
2023/12/29 04:23:58;;;;;;;14.35;6.90;;;;;;;8.85;100.00;99879.75;6094627;23;20025;-85
2023/12/29 04:26:25;;;;;;;15.48;7.78;;;;;;;8.86;100.00;99872.63;6071324;23;20290;-84
2023/12/29 04:28:52;;;;;;;16.48;7.22;;;;;;;8.86;100.00;99875.28;6040843;23;20089;-84
2023/12/29 04:31:18;;;;;;;12.88;6.95;;;;;;;8.86;100.00;99878.75;6117011;23;20341;-84
2023/12/29 04:33:45;;;;;;;12.73;6.35;;;;;;;8.87;100.00;99866.34;6067355;23;20458;-84
2023/12/29 04:36:12;;;;;;;16.35;6.50;;;;;;;8.90;100.00;99866.09;6065607;23;20037;-84
2023/12/29 04:38:39;;;;;;;14.35;6.70;;;;;;;8.91;100.00;99865.16;6118058;23;20072;-84
2023/12/29 04:41:06;;;;;;;16.10;5.90;;;;;;;8.92;100.00;99866.81;6048704;23;20367;-83
2023/12/29 04:43:33;;;;;;;15.77;7.00;;;;;;;8.91;100.00;99868.63;6042852;23;20101;-84
2023/12/29 04:46:00;;;;;;;13.18;6.32;;;;;;;8.92;100.00;99856.22;6090819;23;20077;-84
2023/12/29 04:48:27;;;;;;;14.10;5.63;;;;;;;8.92;100.00;99856.22;6119104;23;20025;-84
2023/12/29 04:50:54;;;;;;;11.32;5.57;;;;;;;8.95;100.00;99865.72;6094331;23;20045;-84
2023/12/29 04:53:20;;;;;;;10.88;4.72;;;;;;;8.94;100.00;99864.91;6119564;23;20084;-84
2023/12/29 04:55:47;;;;;;;13.82;6.22;;;;;;;8.98;100.00;99876.06;6069712;23;20096;-84
2023/12/29 04:58:14;;;;;;;11.90;6.00;;;;;;;8.97;100.00;99882.34;6119473;23;20029;-84
2023/12/29 05:00:41;;;;;;;11.20;5.80;;;;;;;8.97;100.00;99872.59;6050332;23;20077;-84
2023/12/29 05:03:08;;;;;;;10.50;5.50;;;;;;;8.99;100.00;99872.47;6088726;23;20042;-84
2023/12/29 05:05:35;;;;;;;13.38;6.53;;;;;;;8.99;100.00;99878.59;6093225;23;20627;-84
2023/12/29 05:08:01;;;;;;;13.30;6.00;;;;;;;8.98;100.00;99881.38;6069965;23;20080;-84
2023/12/29 05:10:29;;;;;;;13.10;5.82;;;;;;;8.99;100.00;99881.25;6094321;23;20028;-84
2023/12/29 05:12:55;;;;;;;13.27;5.25;;;;;;;8.99;100.00;99875.97;6094690;23;20037;-84
2023/12/29 05:15:22;;;;;;;9.40;4.90;;;;;;;9.02;100.00;99878.34;6118610;23;20093;-84
2023/12/29 05:17:49;;;;;;;12.27;5.13;;;;;;;9.02;100.00;99880.16;6118017;23;20092;-85
2023/12/29 05:20:16;;;;;;;8.23;4.55;;;;;;;9.03;100.00;99881.84;6118957;23;20020;-84
2023/12/29 05:22:42;;;;;;;9.38;4.40;;;;;;;9.02;100.00;99869.56;6070386;23;20112;-84
2023/12/29 05:25:09;;;;;;;11.27;4.88;;;;;;;9.04;100.00;99880.88;6118014;23;20092;-84
2023/12/29 05:27:36;;;;;;;9.70;5.03;;;;;;;9.04;100.00;99868.47;6094714;23;20022;-84
2023/12/29 05:30:06;;;;;;;8.75;4.50;;;;;;;9.06;100.00;99868.38;6117709;23;20353;-84
2023/12/29 05:32:33;;;;;;;9.93;4.97;;;;;;;9.04;100.00;99863.19;6094298;23;20029;-84
2023/12/29 05:35:00;;;;;;;8.50;4.85;;;;;;;9.06;100.00;99858.59;6094994;23;20020;-83
2023/12/29 05:37:27;;;;;;;11.00;5.15;;;;;;;9.05;100.00;99853.41;6094448;23;20029;-84
2023/12/29 05:39:53;;;;;;;9.45;4.28;;;;;;;9.06;100.00;99853.31;6094329;23;20033;-84
2023/12/29 05:42:20;;;;;;;10.13;5.15;;;;;;;9.07;100.00;99854.16;6096026;23;20018;-84
2023/12/29 05:44:47;;;;;;;10.05;5.35;;;;;;;9.05;100.00;99841.00;6120751;23;20024;-84
2023/12/29 05:47:17;;;;;;;8.88;5.07;;;;;;;9.04;100.00;99844.63;6096555;23;20033;-85
2023/12/29 05:49:44;;;;;;;8.30;4.45;;;;;;;9.05;100.00;99837.53;6096737;23;20545;-85
2023/12/29 05:52:12;;;;;;;8.63;4.93;;;;;;;9.05;100.00;99833.06;6095872;23;20025;-84
2023/12/29 05:54:39;;;;;;;10.95;5.70;;;;;;;9.06;100.00;99841.88;6119985;23;20104;-84
2023/12/29 05:57:06;;;;;;;12.38;5.75;;;;;;;9.07;100.00;99838.25;6120325;23;20021;-83
2023/12/29 05:59:33;;;;;;;8.65;5.20;;;;;;;9.07;100.00;99849.69;6120798;23;20022;-84
2023/12/29 06:01:59;;;;;;;10.90;5.63;;;;;;;9.06;100.00;99842.72;6119551;23;20100;-84
2023/12/29 06:04:26;;;;;;;12.75;5.13;;;;;;;9.06;100.00;99842.72;6120180;23;20104;-83
2023/12/29 06:06:53;;;;;;;10.88;5.30;;;;;;;9.08;100.00;99845.22;6070840;23;20022;-83
2023/12/29 06:09:20;;;;;;;10.15;5.25;;;;;;;9.07;100.00;99839.09;6071282;23;20040;-86
2023/12/29 06:11:47;;;;;;;11.73;5.60;;;;;;;9.07;100.00;99833.78;6073640;23;20021;-87
2023/12/29 06:14:14;;;;;;;12.93;6.32;;;;;;;9.07;100.00;99838.25;6097785;23;20435;-87
2023/12/29 06:16:41;;;;;;;10.35;4.82;;;;;;;9.07;100.00;99848.84;6097461;23;20108;-85
2023/12/29 06:19:09;;;;;;;11.70;4.95;;;;;;;9.07;100.00;99847.03;6120668;23;20026;-84
2023/12/29 06:21:43;;;;;;;12.68;5.55;;;;;;;9.10;100.00;99853.88;6096316;23;20028;-85
2023/12/29 06:24:11;;;;;;;12.77;5.47;;;;;;;9.12;100.00;99860.75;6119031;23;20355;-84
2023/12/29 06:26:43;;;;;;;10.32;5.43;;;;;;;9.11;100.00;99863.53;6095440;23;20029;-85
2023/12/29 06:29:10;;;;;;;9.82;5.05;;;;;;;9.10;100.00;99852.06;6121787;23;20028;-85
2023/12/29 06:31:41;;;;;;;11.10;5.22;;;;;;;9.10;100.00;99854.72;6043876;23;20021;-85
2023/12/29 06:34:09;;;;;;;14.65;5.60;;;;;;;9.11;100.00;99856.41;6091265;23;20413;-86
2023/12/29 06:36:36;;;;;;;12.63;5.55;;;;;;;9.07;100.00;99849.69;6095870;23;20064;-90
2023/12/29 06:39:03;;;;;;;10.25;5.05;;;;;;;9.10;100.00;99857.38;6072520;23;20132;-89
2023/12/29 06:41:30;;;;;;;11.30;5.43;;;;;;;9.09;100.00;99852.22;6073624;23;20033;-86
2023/12/29 06:43:56;;;;;;;8.70;4.18;;;;;;;9.07;100.00;99844.38;6144171;23;20029;-83
2023/12/29 06:46:23;;;;;;;8.85;4.25;;;;;;;9.06;100.00;99848.00;6070847;23;20465;-83
2023/12/29 06:48:50;;;;;;;10.50;5.40;;;;;;;9.09;100.00;99846.91;6072191;23;20093;-83
2023/12/29 06:51:18;;;;;;;10.07;5.00;;;;;;;9.08;100.00;99846.09;6119891;23;20021;-82
2023/12/29 06:53:47;;;;;;;7.05;4.70;;;;;;;9.09;100.00;99854.88;6094876;23;20024;-83
2023/12/29 06:56:15;;;;;;;11.10;5.30;;;;;;;9.09;100.00;99854.88;6070038;23;20075;-84
2023/12/29 06:58:42;;;;;;;12.43;5.60;;;;;;;9.10;100.00;99848.59;6092238;23;20020;-83
2023/12/29 07:01:08;;;;;;;10.90;5.82;;;;;;;9.08;100.00;99848.72;6118368;23;20034;-83
2023/12/29 07:03:35;;;;;;;12.00;5.55;;;;;;;9.05;100.00;99840.19;6094225;23;20353;-84
2023/12/29 07:06:02;;;;;;;12.75;5.90;;;;;;;9.07;100.00;99851.50;6144250;23;20120;-84
2023/12/29 07:08:29;;;;;;;14.70;6.18;;;;;;;9.07;100.00;99862.94;6119228;23;20100;-83
2023/12/29 07:10:56;;;;;;;11.10;5.90;;;;;;;9.03;100.00;99845.63;6071485;23;20033;-82
2023/12/29 07:13:23;;;;;;;9.45;5.57;;;;;;;9.07;100.00;99862.09;6118969;23;20084;-83
2023/12/29 07:15:50;;;;;;;15.23;5.82;;;;;;;9.09;100.00;99860.16;6144316;23;20092;-82
2023/12/29 07:18:17;;;;;;;10.30;5.45;;;;;;;9.05;100.00;99858.72;6068810;23;20046;-81
2023/12/29 07:20:43;;;;;;;9.05;4.13;;;;;;;9.07;100.00;99857.63;6095878;23;20088;-81
2023/12/29 07:23:10;;;;;;;8.48;4.35;;;;;;;9.09;100.00;99857.50;6096024;23;20092;-81
2023/12/29 07:25:37;;;;;;;12.10;5.32;;;;;;;9.06;100.00;99848.00;6096315;23;20024;-81
2023/12/29 07:28:04;;;;;;;10.32;5.10;;;;;;;9.08;100.00;99864.63;6096276;23;20033;-81
2023/12/29 07:30:31;;;;;;;11.15;5.13;;;;;;;9.09;100.00;99868.94;6120879;23;20021;-81
2023/12/29 07:32:58;;;;;;;10.80;5.15;;;;;;;9.09;100.00;99868.09;6097412;23;20049;-81
2023/12/29 07:35:25;;;;;;;11.63;5.47;;;;;;;9.12;100.00;99862.56;6144889;23;20453;-81
2023/12/29 07:37:52;;;;;;;11.18;5.75;;;;;;;9.11;100.00;99855.59;6096377;23;20021;-81
2023/12/29 07:40:19;;;;;;;14.13;5.88;;;;;;;9.11;100.00;99864.38;6120442;23;20021;-81
2023/12/29 07:42:50;;;;;;;13.65;6.13;;;;;;;9.14;100.00;99865.94;6043505;23;20026;-81
2023/12/29 07:45:17;;;;;;;12.65;6.38;;;;;;;9.12;100.00;99865.19;6094275;23;20018;-81
2023/12/29 07:47:44;;;;;;;13.27;6.88;;;;;;;9.17;100.00;99875.44;6091460;23;20338;-81
2023/12/29 07:50:11;;;;;;;12.95;6.07;;;;;;;9.18;100.00;99863.84;6092095;23;20022;-81
2023/12/29 07:52:38;;;;;;;12.95;5.78;;;;;;;9.16;100.00;99860.47;6114837;23;20432;-81
2023/12/29 07:55:05;;;;;;;13.65;5.95;;;;;;;9.17;100.00;99872.78;6095748;23;20014;-82
2023/12/29 07:57:32;;;;;;;10.65;5.50;;;;;;;9.16;100.00;99868.44;6121453;23;20393;-80
2023/12/29 07:59:58;;;;;;;10.23;5.68;;;;;;;9.18;100.00;99864.69;6144090;23;20022;-81
2023/12/29 08:02:25;;;;;;;11.50;5.55;;;;;;;9.18;100.00;99880.59;6071890;23;20058;-83
2023/12/29 08:04:52;;;;;;;11.85;5.78;;;;;;;9.18;100.00;99872.63;6096404;23;20497;-81
2023/12/29 08:07:19;;;;;;;12.98;5.70;;;;;;;9.20;100.00;99878.66;6144663;23;20756;-81
2023/12/29 08:09:46;;;;;;;11.18;5.43;;;;;;;9.20;100.00;99873.34;6120427;23;20044;-81
2023/12/29 08:12:13;;;;;;;12.52;6.05;;;;;;;9.20;100.00;99873.34;6096484;23;20104;-81
2023/12/29 08:14:40;;;;;;;13.85;6.97;;;;;;;9.21;100.00;99874.19;6120576;23;20017;-81
2023/12/29 08:17:07;;;;;;;13.25;5.80;;;;;;;9.21;100.00;99880.34;6095682;23;20501;-81
2023/12/29 08:19:34;;;;;;;12.40;5.88;;;;;;;9.21;100.00;99887.44;6120228;23;20513;-81
2023/12/29 08:22:01;;;;;;;12.30;6.35;;;;;;;9.22;100.00;99881.19;6119927;23;20025;-81
2023/12/29 08:24:28;;;;;;;11.63;5.45;;;;;;;9.22;100.00;99889.97;6121159;23;20026;-81
2023/12/29 08:26:54;;;;;;;13.95;5.70;;;;;;;9.25;100.00;99891.53;6070722;23;20024;-81
2023/12/29 08:29:21;;;;;;;11.75;5.90;;;;;;;9.26;100.00;99896.72;6119544;23;20105;-82
2023/12/29 08:31:48;;;;;;;11.52;5.63;;;;;;;9.26;100.00;99894.06;6095475;23;20087;-81
2023/12/29 08:34:15;;;;;;;13.02;6.05;;;;;;;9.28;100.00;99888.63;6143388;23;20032;-81
2023/12/29 08:36:42;;;;;;;13.18;6.30;;;;;;;9.29;100.00;99892.97;6118328;23;20393;-82
2023/12/29 08:39:09;;;;;;;16.00;6.32;;;;;;;9.30;100.00;99900.78;6094971;23;20097;-81
2023/12/29 08:41:36;;;;;;;11.60;5.88;;;;;;;9.30;100.00;99903.44;6071678;23;20565;-81
2023/12/29 08:44:03;;;;;;;11.40;5.80;;;;;;;9.32;100.00;99905.97;6071362;23;20013;-82
2023/12/29 08:46:30;;;;;;;9.80;5.40;;;;;;;9.32;100.00;99901.50;6093984;23;20028;-81
2023/12/29 08:48:57;;;;;;;12.38;5.30;;;;;;;9.33;100.00;99900.53;6094503;23;20013;-80
2023/12/29 08:51:24;;;;;;;11.50;5.63;;;;;;;9.34;100.00;99904.88;6095540;23;20076;-80
2023/12/29 08:53:51;;;;;;;10.63;4.90;;;;;;;9.38;100.00;99900.16;6094624;23;20412;-81
2023/12/29 08:56:17;;;;;;;11.88;5.30;;;;;;;9.40;100.00;99910.63;6094101;23;20352;-81
2023/12/29 08:58:44;;;;;;;10.93;5.43;;;;;;;9.41;100.00;99901.69;6119968;23;20018;-80
2023/12/29 09:01:11;;;;;;;11.45;5.32;;;;;;;9.42;100.00;99891.00;6093134;23;20025;-81
2023/12/29 09:03:38;;;;;;;9.85;5.32;;;;;;;9.44;100.00;99902.31;6118990;23;20021;-81
2023/12/29 09:06:08;;;;;;;11.20;5.30;;;;;;;9.45;100.00;99905.78;6070882;23;20014;-80
2023/12/29 09:08:35;;;;;;;10.15;5.20;;;;;;;9.47;100.00;99902.06;6095465;23;20049;-81
2023/12/29 09:11:02;;;;;;;10.52;4.80;;;;;;;9.50;100.00;99900.97;6093780;23;20080;-81
2023/12/29 09:13:29;;;;;;;9.15;5.47;;;;;;;9.45;100.00;99901.34;6143584;23;23422;-80
2023/12/29 09:15:57;;;;;;;10.35;4.55;;;;;;;9.49;100.00;99905.41;6093656;23;20452;-80
2023/12/29 09:18:23;;;;;;;9.18;4.90;;;;;;;9.50;100.00;99903.59;6094624;23;20053;-81
2023/12/29 09:20:51;;;;;;;9.95;4.57;;;;;;;9.50;100.00;99903.59;6142369;23;20026;-82
2023/12/29 09:23:18;;;;;;;9.40;4.75;;;;;;;9.53;100.00;99898.03;6071221;23;20445;-81
2023/12/29 09:25:45;;;;;;;9.75;4.70;;;;;;;9.59;100.00;99912.59;6093746;23;20048;-81
2023/12/29 09:28:12;;;;;;;8.35;4.20;;;;;;;9.61;100.00;99910.66;6094093;23;20450;-82
2023/12/29 09:30:39;;;;;;;8.43;4.10;;;;;;;9.63;100.00;99909.56;6071022;23;20346;-82
2023/12/29 09:33:06;;;;;;;8.88;4.75;;;;;;;9.64;100.00;99908.63;6070344;23;20021;-82
2023/12/29 09:35:33;;;;;;;9.30;4.50;;;;;;;9.69;100.00;99898.47;6119325;23;20110;-84
2023/12/29 09:38:04;;;;;;;9.07;3.85;;;;;;;9.71;100.00;99912.41;6094025;23;20022;-82
2023/12/29 09:40:31;;;;;;;9.30;5.30;;;;;;;9.73;100.00;99907.00;6116389;23;20688;-83
2023/12/29 09:42:58;;;;;;;7.78;4.53;;;;;;;9.73;100.00;99901.69;6118189;23;20053;-80
2023/12/29 09:45:26;;;;;;;9.55;4.72;;;;;;;9.80;100.00;99908.16;6093465;23;20022;-82
2023/12/29 09:47:55;;;;;;;7.88;4.63;;;;;;;9.84;100.00;99908.72;6118310;23;20060;-83
2023/12/29 09:50:23;;;;;;;8.43;4.03;;;;;;;9.86;100.00;99918.25;6118024;23;20013;-83
2023/12/29 09:52:50;;;;;;;8.60;4.18;;;;;;;9.87;100.00;99914.63;6069974;23;20092;-83
2023/12/29 09:55:18;;;;;;;10.13;4.30;;;;;;;9.84;100.00;99912.22;6118640;23;20454;-83
2023/12/29 09:57:46;;;;;;;12.07;4.60;;;;;;;9.90;100.00;99921.50;6141872;23;20030;-83
2023/12/29 10:00:15;;;;;;;8.30;3.58;;;;;;;9.86;100.00;99914.75;6117898;23;20346;-85
2023/12/29 10:02:42;;;;;;;6.30;3.60;;;;;;;9.84;100.00;99904.25;6094833;23;20032;-81
2023/12/29 10:05:09;;;;;;;9.77;4.20;;;;;;;9.86;100.00;99904.97;6094749;23;20060;-81
2023/12/29 10:07:39;;;;;;;9.00;3.97;;;;;;;9.90;100.00;99905.59;6093508;23;20084;-81
2023/12/29 10:10:07;;;;;;;7.95;3.67;;;;;;;9.93;100.00;99897.34;6117727;23;20025;-81
2023/12/29 10:12:36;;;;;;;7.65;4.43;;;;;;;9.97;100.00;99896.97;6119353;23;20095;-81
2023/12/29 10:15:18;;;;;;;7.68;3.67;;;;;;;9.96;100.00;99873.22;6118398;23;20029;-81
2023/12/29 10:18:09;;;;;;;6.15;2.97;;;;;;;9.97;100.00;99873.09;6119281;23;20021;-81
2023/12/29 10:20:50;;;;;;;9.23;3.53;;;;;;;10.03;100.00;99878.84;6094326;23;20075;-81
2023/12/29 10:23:23;;;;;;;6.53;3.30;;;;;;;10.05;99.78;99871.56;6094349;23;20657;-82
2023/12/29 10:25:50;;;;;;;9.07;3.00;;;;;;;10.05;100.00;99863.63;6094208;23;20085;-81
2023/12/29 10:28:19;;;;;;;7.00;3.17;;;;;;;10.07;100.00;99874.94;6096139;23;20021;-81
2023/12/29 10:30:47;;;;;;;7.85;3.83;;;;;;;10.08;100.00;99885.44;6097099;23;20097;-81
2023/12/29 10:33:29;;;;;;;15.57;4.03;;;;;;;10.04;98.83;99872.56;6096618;23;20021;-80
2023/12/29 10:36:05;;;;;;;6.50;3.10;;;;;;;10.03;98.97;99869.06;6073380;23;20338;-80
2023/12/29 10:38:31;;;;;;;6.13;3.38;;;;;;;9.98;98.21;99868.63;6120178;23;20022;-85
2023/12/29 10:41:18;;;;;;;8.63;3.50;;;;;;;9.95;98.72;99871.56;6095220;23;20025;-81
2023/12/29 10:43:52;;;;;;;152.25;21.05;;;;;;;9.96;99.42;99858.13;6119971;23;20084;-81
2023/12/29 10:46:20;;;;;;;51.78;8.95;;;;;;;9.99;99.74;99859.69;6096497;23;20021;-81
2023/12/29 10:48:48;;;;;;;6.95;3.70;;;;;;;9.97;99.27;99861.63;6119880;23;20021;-81
2023/12/29 10:51:15;;;;;;;7.70;3.10;;;;;;;10.00;99.36;99872.00;6096088;23;20017;-82
2023/12/29 10:53:54;;;;;;;5.05;2.92;;;;;;;9.93;98.95;99863.72;6144321;23;20017;-80
2023/12/29 10:56:22;;;;;;;6.70;3.08;;;;;;;9.98;99.10;99853.53;6119592;23;20037;-81
2023/12/29 10:59:03;;;;;;;3.53;2.50;;;;;;;9.96;98.38;99858.13;6072001;23;20021;-82
2023/12/29 11:01:39;;;;;;;7.20;2.90;;;;;;;9.97;97.88;99845.72;6119028;23;20461;-83
2023/12/29 11:04:06;;;;;;;5.22;2.70;;;;;;;10.04;98.40;99843.38;6095445;23;20080;-82
2023/12/29 11:06:46;;;;;;;5.25;2.80;;;;;;;10.06;98.53;99860.84;6073528;23;20064;-82
2023/12/29 11:09:14;;;;;;;7.18;2.53;;;;;;;10.11;99.53;99847.19;6121589;23;20095;-82
2023/12/29 11:11:41;;;;;;;5.10;2.40;;;;;;;10.13;100.00;99843.44;6095728;23;20021;-83
2023/12/29 11:14:10;;;;;;;7.35;3.72;;;;;;;10.12;98.70;99841.72;6144817;23;20034;-81
2023/12/29 11:16:38;;;;;;;8.23;3.85;;;;;;;10.15;98.95;99844.16;6120641;23;20381;-82
2023/12/29 11:19:05;;;;;;;7.68;3.53;;;;;;;10.13;99.12;99842.59;6119122;23;20133;-84
2023/12/29 11:21:34;;;;;;;6.40;3.00;;;;;;;10.16;98.80;99844.97;6119391;23;20052;-83
2023/12/29 11:24:01;;;;;;;4.85;2.40;;;;;;;10.16;97.89;99842.31;6068802;23;20034;-83
2023/12/29 11:26:31;;;;;;;4.15;2.38;;;;;;;10.08;96.74;99832.38;6036916;23;20022;-84
2023/12/29 11:29:00;;;;;;;4.43;2.65;;;;;;;10.12;97.72;99848.84;6073108;23;20080;-84
2023/12/29 11:31:27;;;;;;;4.57;3.00;;;;;;;10.08;98.02;99837.69;6089674;23;20026;-84